Time;durP1;ratioP1;P1;durP2;ratioP2;P2;SDS_P1;SDS_P2;PMS_P1;PMS_P2;Temp;Humidity;BMP_temperature;BMP_pressure;BME280_temperature;BME280_humidity;BME280_pressure;Samples;Min_cycle;Max_cycle;Signal;HPM_P1;HPM_P2
2022/06/22 00:02:09;;;;;;;1.57;1.30;;;11.80;84.60;;;;;;4966743;28;20854;-65
2022/06/22 00:04:47;;;;;;;1.87;1.67;;;11.60;98.10;;;;;;4966188;28;20744;-67
2022/06/22 00:07:15;;;;;;;1.57;1.40;;;11.60;99.90;;;;;;4966482;28;20184;-67
2022/06/22 00:09:42;;;;;;;1.50;1.40;;;11.60;99.90;;;;;;4966186;28;20640;-67
2022/06/22 00:12:28;;;;;;;3.53;1.87;;;11.60;99.90;;;;;;4966664;28;20577;-65
2022/06/22 00:14:57;;;;;;;2.60;1.57;;;11.60;99.90;;;;;;4966166;28;20228;-66
2022/06/22 00:17:25;;;;;;;1.30;1.20;;;11.50;99.90;;;;;;4965762;28;20189;-68
2022/06/22 00:20:04;;;;;;;3.28;1.35;;;11.40;99.90;;;;;;4966130;28;20208;-67
2022/06/22 00:22:30;;;;;;;1.90;1.47;;;11.40;99.90;;;;;;4966493;28;20667;-68
2022/06/22 00:25:10;;;;;;;2.00;1.50;;;11.30;99.90;;;;;;4966282;28;20189;-66
2022/06/22 00:27:36;;;;;;;2.00;1.53;;;11.40;99.90;;;;;;4965550;28;20221;-66
2022/06/22 00:30:11;;;;;;;2.80;1.30;;;11.40;99.90;;;;;;4966452;28;20284;-68
2022/06/22 00:32:37;;;;;;;3.07;1.57;;;11.40;99.90;;;;;;4966312;28;20288;-66
2022/06/22 00:35:40;;;;;;;2.27;1.63;;;11.40;99.90;;;;;;4965723;28;20292;-66
2022/06/22 00:38:06;;;;;;;2.17;1.40;;;11.50;99.90;;;;;;4965317;28;21062;-65
2022/06/22 00:40:35;;;;;;;1.53;1.40;;;11.50;99.90;;;;;;4965755;28;20335;-66
2022/06/22 00:43:02;;;;;;;1.67;1.57;;;11.50;99.90;;;;;;4965067;28;20212;-67
2022/06/22 00:45:29;;;;;;;2.63;1.80;;;11.40;99.90;;;;;;4966141;28;20319;-66
2022/06/22 00:48:01;;;;;;;1.80;1.70;;;11.30;99.90;;;;;;4965281;28;20239;-66
2022/06/22 00:50:36;;;;;;;1.60;1.43;;;11.30;99.90;;;;;;4980751;28;20689;-67
2022/06/22 00:53:06;;;;;;;3.70;1.80;;;11.10;99.90;;;;;;4965743;28;20648;-67
2022/06/22 00:55:42;;;;;;;1.90;1.70;;;11.20;99.90;;;;;;4965874;28;20592;-67
2022/06/22 00:58:08;;;;;;;2.75;1.90;;;11.10;99.90;;;;;;4928794;28;1070224;-66
2022/06/22 01:00:40;;;;;;;3.13;1.70;;;11.10;99.90;;;;;;4965215;28;20205;-68
2022/06/22 01:03:24;;;;;;;2.00;1.70;;;11.20;99.90;;;;;;4966956;28;20184;-67
2022/06/22 01:06:13;;;;;;;2.67;1.60;;;11.20;99.90;;;;;;4966672;28;20255;-67
2022/06/22 01:08:53;;;;;;;2.57;1.80;;;11.20;99.90;;;;;;4966072;28;20192;-66
2022/06/22 01:14:37;;;;;;;2.03;1.67;;;11.30;99.90;;;;;;4966203;28;20327;-66
2022/06/22 01:17:06;;;;;;;2.33;1.73;;;11.20;99.90;;;;;;4966369;28;20672;-66
2022/06/22 01:20:11;;;;;;;2.90;1.90;;;11.20;99.90;;;;;;4965451;28;20608;-66
2022/06/22 01:22:59;;;;;;;2.60;1.50;;;11.10;99.90;;;;;;4937293;28;20251;-67
2022/06/22 01:25:49;;;;;;;4.00;2.13;;;11.00;99.90;;;;;;4965470;28;20826;-67
2022/06/22 01:28:15;;;;;;;5.10;1.97;;;10.90;99.90;;;;;;4965562;28;20208;-68
2022/06/22 01:30:47;;;;;;;2.63;1.80;;;10.90;99.90;;;;;;4964725;28;20240;-66
2022/06/22 01:33:33;;;;;;;3.70;2.10;;;10.90;99.90;;;;;;4964502;28;20219;-67
2022/06/22 01:36:07;;;;;;;2.47;1.93;;;10.90;99.90;;;;;;4965863;28;20240;-66
2022/06/22 01:38:37;;;;;;;4.00;2.30;;;10.90;99.90;;;;;;4964936;28;20177;-68
2022/06/22 01:41:23;;;;;;;1.73;1.63;;;10.90;99.90;;;;;;4965864;28;20185;-64
2022/06/22 01:43:56;;;;;;;3.43;1.97;;;10.80;99.90;;;;;;4966087;28;20189;-67
2022/06/22 01:46:40;;;;;;;2.73;2.00;;;10.90;99.90;;;;;;4965616;28;20263;-67
2022/06/22 01:49:37;;;;;;;3.57;1.90;;;10.90;99.90;;;;;;4965151;28;20209;-66
2022/06/22 01:52:17;;;;;;;2.10;1.93;;;10.90;99.90;;;;;;4965530;28;20200;-67
2022/06/22 01:54:57;;;;;;;2.60;1.93;;;10.80;99.90;;;;;;4965559;28;20210;-66
2022/06/22 01:57:32;;;;;;;3.60;1.60;;;10.80;99.90;;;;;;4965180;28;20181;-67
2022/06/22 02:00:13;;;;;;;3.47;2.00;;;10.80;99.90;;;;;;4965172;28;20315;-67
2022/06/22 02:02:46;;;;;;;2.13;1.90;;;10.70;99.90;;;;;;4965553;28;20189;-65
2022/06/22 02:05:42;;;;;;;2.07;1.83;;;10.70;99.90;;;;;;4965548;28;20672;-66
2022/06/22 02:08:14;;;;;;;3.20;1.80;;;10.70;99.90;;;;;;4964650;28;20184;-65
2022/06/22 02:10:46;;;;;;;2.57;1.83;;;10.60;99.90;;;;;;4965334;28;20223;-67
2022/06/22 02:13:36;;;;;;;3.13;1.80;;;10.60;99.90;;;;;;4965565;28;20226;-65
2022/06/22 02:16:13;;;;;;;2.93;1.90;;;10.60;99.90;;;;;;4965494;28;20185;-67
2022/06/22 02:18:50;;;;;;;3.30;1.70;;;10.60;99.90;;;;;;4963250;28;20648;-66
2022/06/22 02:21:19;;;;;;;2.73;1.70;;;10.50;99.90;;;;;;4965315;28;20188;-67
2022/06/22 02:24:11;;;;;;;2.57;1.87;;;10.50;99.90;;;;;;4964407;28;20223;-66
2022/06/22 02:27:03;;;;;;;2.73;1.70;;;10.40;99.90;;;;;;4958264;28;20197;-68
2022/06/22 02:29:51;;;;;;;2.60;1.60;;;10.40;99.90;;;;;;4964666;28;20204;-67
2022/06/22 02:32:29;;;;;;;1.67;1.50;;;10.40;99.90;;;;;;4965302;28;20188;-66
2022/06/22 02:34:56;;;;;;;3.10;1.67;;;10.40;99.90;;;;;;4965256;28;20247;-66
2022/06/22 02:37:27;;;;;;;3.60;1.60;;;10.40;99.90;;;;;;4966275;28;20213;-67
2022/06/22 02:39:59;;;;;;;2.33;1.53;;;10.30;99.90;;;;;;4968726;28;20205;-68
2022/06/22 02:45:13;;;;;;;3.57;1.60;;;10.30;99.90;;;;;;4968835;28;20223;-66
2022/06/22 02:47:44;;;;;;;2.67;1.67;;;10.30;99.90;;;;;;4968487;28;20208;-67
2022/06/22 02:50:45;;;;;;;3.40;1.47;;;10.20;99.90;;;;;;4968365;28;20223;-66
2022/06/22 02:53:23;;;;;;;1.73;1.60;;;10.20;99.90;;;;;;4968682;28;20656;-65
2022/06/22 02:55:50;;;;;;;3.00;1.60;;;10.10;99.90;;;;;;4968690;28;20183;-65
2022/06/22 02:58:30;;;;;;;4.43;1.83;;;10.10;99.90;;;;;;4968188;28;20192;-67
2022/06/22 03:01:00;;;;;;;4.33;1.70;;;10.10;99.90;;;;;;4968759;28;20235;-67
2022/06/22 03:03:27;;;;;;;3.23;1.87;;;10.10;99.90;;;;;;4968850;28;20231;-67
2022/06/22 03:05:56;;;;;;;4.20;1.50;;;10.00;99.90;;;;;;4968457;28;20193;-67
2022/06/22 03:08:23;;;;;;;2.60;1.60;;;9.90;99.90;;;;;;4966850;28;20276;-67
2022/06/22 03:11:00;;;;;;;2.93;1.60;;;10.00;99.90;;;;;;4968304;28;20224;-69
2022/06/22 03:13:36;;;;;;;7.13;1.73;;;9.90;99.90;;;;;;4967068;28;20295;-66
2022/06/22 03:16:02;;;;;;;5.20;1.70;;;9.90;99.90;;;;;;4968624;28;20176;-68
2022/06/22 03:18:31;;;;;;;2.07;1.57;;;9.90;99.90;;;;;;4967398;28;20188;-63
2022/06/22 03:21:06;;;;;;;3.00;1.60;;;9.90;99.90;;;;;;4968171;28;20181;-66
2022/06/22 03:24:09;;;;;;;2.30;1.53;;;9.90;99.90;;;;;;4965844;28;20287;-66
2022/06/22 03:26:49;;;;;;;4.03;1.63;;;9.80;99.90;;;;;;4963278;28;20189;-66
2022/06/22 03:29:38;;;;;;;5.07;1.50;;;9.90;99.90;;;;;;4966838;28;20833;-68
2022/06/22 03:32:13;;;;;;;3.57;1.77;;;10.00;99.90;;;;;;4966563;28;20196;-65
2022/06/22 03:34:56;;;;;;;2.20;1.40;;;10.00;99.90;;;;;;4967642;28;20220;-66
2022/06/22 03:37:57;;;;;;;2.70;1.50;;;10.00;99.90;;;;;;4967192;28;20192;-66
2022/06/22 03:40:29;;;;;;;3.10;1.60;;;10.10;99.90;;;;;;4967358;28;20263;-65
2022/06/22 03:43:02;;;;;;;2.80;1.60;;;10.10;99.90;;;;;;4967619;28;20211;-66
2022/06/22 03:45:32;;;;;;;3.30;1.67;;;10.10;99.90;;;;;;4967749;28;20300;-67
2022/06/22 03:48:16;;;;;;;2.73;1.50;;;10.10;99.90;;;;;;4966912;28;20203;-67
2022/06/22 03:51:14;;;;;;;2.67;1.73;;;10.20;99.90;;;;;;4967891;28;20204;-65
2022/06/22 03:53:43;;;;;;;3.70;2.17;;;10.20;99.90;;;;;;4955842;28;21249;-67
2022/06/22 03:56:14;;;;;;;2.60;2.40;;;10.30;99.90;;;;;;4968023;28;20185;-67
2022/06/22 03:58:42;;;;;;;3.70;2.70;;;10.30;99.90;;;;;;4967174;28;20212;-67
2022/06/22 04:01:10;;;;;;;2.63;2.00;;;10.40;99.90;;;;;;4968205;28;20636;-67
2022/06/22 04:03:37;;;;;;;5.37;2.00;;;10.40;99.90;;;;;;4967407;28;21188;-67
2022/06/22 04:06:03;;;;;;;2.83;1.60;;;10.40;99.90;;;;;;4967352;28;20528;-66
2022/06/22 04:08:37;;;;;;;2.00;1.77;;;10.30;99.90;;;;;;4967249;28;20196;-65
2022/06/22 04:11:10;;;;;;;4.30;1.93;;;10.20;99.90;;;;;;4967536;28;20232;-65
2022/06/22 04:13:45;;;;;;;2.67;1.97;;;10.10;99.90;;;;;;4967706;28;20196;-66
2022/06/22 04:16:17;;;;;;;7.23;2.13;;;10.10;99.90;;;;;;4967774;28;20195;-66
2022/06/22 04:18:47;;;;;;;4.10;1.80;;;10.10;99.90;;;;;;4966624;28;20183;-66
2022/06/22 04:21:19;;;;;;;2.70;2.03;;;10.30;99.90;;;;;;4967451;28;20216;-67
2022/06/22 04:23:55;;;;;;;3.80;2.67;;;10.50;99.90;;;;;;4967496;28;20189;-66
2022/06/22 04:26:38;;;;;;;3.30;2.33;;;10.70;99.90;;;;;;4967157;28;20558;-67
2022/06/22 04:29:18;;;;;;;4.10;2.70;;;10.80;99.90;;;;;;4966311;28;20299;-65
2022/06/22 04:31:53;;;;;;;4.70;3.27;;;11.10;99.90;;;;;;4967157;28;20199;-67
2022/06/22 04:34:45;;;;;;;5.17;3.10;;;11.20;99.90;;;;;;4967255;28;20207;-67
2022/06/22 04:37:27;;;;;;;5.00;2.70;;;11.30;99.90;;;;;;4966741;28;20196;-65
2022/06/22 04:40:03;;;;;;;6.10;3.60;;;11.40;99.90;;;;;;4966765;28;20212;-67
2022/06/22 04:42:28;;;;;;;5.37;3.17;;;11.50;99.90;;;;;;4966923;28;20172;-68
2022/06/22 04:44:54;;;;;;;4.37;3.47;;;11.60;99.90;;;;;;4967088;28;20645;-66
2022/06/22 04:47:28;;;;;;;4.63;3.10;;;11.70;99.90;;;;;;4966411;28;20814;-67
2022/06/22 04:50:07;;;;;;;3.78;3.30;;;11.80;99.90;;;;;;4965977;28;20219;-65
2022/06/22 04:52:48;;;;;;;5.30;3.38;;;11.90;99.90;;;;;;4966647;28;20641;-66
2022/06/22 04:55:20;;;;;;;4.65;3.30;;;12.10;99.90;;;;;;4967074;28;20223;-66
2022/06/22 04:57:49;;;;;;;4.55;3.05;;;12.40;99.90;;;;;;4966265;28;20279;-67
2022/06/22 05:00:19;;;;;;;3.97;2.38;;;13.70;99.90;;;;;;4965474;28;20287;-68
2022/06/22 05:02:48;;;;;;;6.20;2.75;;;15.60;1.00;;;;;;4966569;28;20195;-66
2022/06/22 05:05:22;;;;;;;2.63;1.90;;;;;;;;;;4966528;28;20184;-67
2022/06/22 05:08:16;;;;;;;2.53;2.03;;;17.00;1.00;;;;;;4965860;28;20181;-68
2022/06/22 05:11:05;;;;;;;4.82;1.80;;;20.50;1.00;;;;;;4959749;28;20403;-66
2022/06/22 05:13:35;;;;;;;2.00;1.80;;;22.00;99.90;;;;;;4964142;28;20216;-68
2022/06/22 05:16:04;;;;;;;4.13;2.00;;;22.70;1.00;;;;;;4965933;28;20184;-67
2022/06/22 05:18:35;;;;;;;1.98;1.58;;;23.50;1.00;;;;;;4963872;28;20185;-67
2022/06/22 05:21:09;;;;;;;2.63;2.03;;;23.80;99.90;;;;;;4965746;28;20656;-67
2022/06/22 05:23:35;;;;;;;3.05;1.77;;;24.30;99.90;;;;;;4965756;28;20282;-68
2022/06/22 05:26:05;;;;;;;2.10;1.90;;;24.70;99.90;;;;;;4965567;28;20271;-68
2022/06/22 05:28:39;;;;;;;2.13;1.90;;;24.90;99.90;;;;;;4964781;28;20185;-67
2022/06/22 05:31:21;;;;;;;4.10;1.83;;;25.10;99.90;;;;;;4965931;28;20605;-67
2022/06/22 05:33:49;;;;;;;2.45;1.95;;;25.50;99.90;;;;;;4964770;28;20213;-67
2022/06/22 05:36:20;;;;;;;3.45;2.22;;;25.90;99.90;;;;;;4965587;28;20182;-65
2022/06/22 05:38:50;;;;;;;4.07;2.15;;;26.10;99.90;;;;;;4964949;28;20185;-66
2022/06/22 05:41:20;;;;;;;3.33;2.08;;;26.30;99.90;;;;;;4965655;28;20177;-66
2022/06/22 05:43:47;;;;;;;2.63;1.88;;;26.20;99.90;;;;;;4965532;28;20181;-67
2022/06/22 05:46:14;;;;;;;3.15;1.98;;;26.50;99.90;;;;;;4965179;28;21222;-65
2022/06/22 05:48:46;;;;;;;1.90;1.70;;;26.60;99.90;;;;;;4964262;28;20185;-67
2022/06/22 05:51:33;;;;;;;3.50;1.98;;;26.90;99.90;;;;;;4964367;28;20193;-68
2022/06/22 05:54:18;;;;;;;2.42;2.10;;;27.30;99.90;;;;;;4965127;28;20730;-67
2022/06/22 05:56:48;;;;;;;3.53;2.25;;;27.50;99.90;;;;;;4965776;28;20180;-66
2022/06/22 05:59:40;;;;;;;2.70;2.00;;;27.50;99.90;;;;;;4964776;28;20626;-67
2022/06/22 06:02:27;;;;;;;2.60;1.80;;;27.80;99.90;;;;;;4965554;28;20216;-67
2022/06/22 06:05:34;;;;;;;2.40;2.20;;;28.10;99.90;;;;;;4965539;28;20653;-67
2022/06/22 06:08:02;;;;;;;4.32;2.75;;;28.30;91.70;;;;;;4956977;28;20544;-67
2022/06/22 06:10:38;;;;;;;3.15;2.20;;;28.10;80.90;;;;;;4965010;28;20211;-67
2022/06/22 06:13:24;;;;;;;2.67;2.45;;;28.20;83.90;;;;;;4965739;28;20204;-67
2022/06/22 06:15:56;;;;;;;2.88;2.45;;;28.40;78.60;;;;;;4965583;28;20286;-67
2022/06/22 06:18:31;;;;;;;2.70;2.50;;;28.80;62.60;;;;;;4979158;28;20550;-65
2022/06/22 06:21:02;;;;;;;3.47;2.42;;;28.90;49.20;;;;;;4965113;28;20565;-67
2022/06/22 06:23:36;;;;;;;3.80;2.38;;;29.30;47.30;;;;;;4965445;28;20193;-66
2022/06/22 06:29:14;;;;;;;3.80;2.50;;;30.20;25.00;;;;;;4964331;28;20223;-68
2022/06/22 06:31:57;;;;;;;2.55;2.33;;;29.70;19.40;;;;;;4965339;28;20271;-67
2022/06/22 06:34:33;;;;;;;4.28;2.30;;;29.80;19.90;;;;;;4964919;28;20308;-66
2022/06/22 06:37:10;;;;;;;3.63;2.60;;;29.70;20.50;;;;;;4964106;28;20196;-68
2022/06/22 06:39:41;;;;;;;3.65;2.25;;;29.90;16.90;;;;;;4964534;28;20219;-68
2022/06/22 06:42:35;;;;;;;4.32;2.58;;;29.90;15.80;;;;;;4965351;28;20264;-65
2022/06/22 06:45:02;;;;;;;3.72;2.40;;;29.80;14.30;;;;;;4964962;28;20280;-68
2022/06/22 06:47:36;;;;;;;3.50;2.28;;;30.50;13.50;;;;;;4964591;28;20192;-66
2022/06/22 06:50:16;;;;;;;3.20;2.67;;;30.20;7.30;;;;;;4964847;28;20719;-66
2022/06/22 06:52:59;;;;;;;3.05;2.28;;;29.90;6.60;;;;;;4965256;28;20193;-67
2022/06/22 06:55:32;;;;;;;3.85;2.00;;;29.90;6.50;;;;;;5027292;23;20235;-89
2022/06/22 06:58:22;;;;;;;2.45;2.13;;;30.60;7.20;;;;;;4997053;28;20318;-87
2022/06/22 07:00:49;;;;;;;2.95;2.50;;;30.70;1.00;;;;;;4991351;28;20188;-88
2022/06/22 07:03:24;;;;;;;3.95;2.03;;;30.00;1.00;;;;;;4998078;28;20658;-86
2022/06/22 07:05:50;;;;;;;2.00;1.90;;;29.40;2.50;;;;;;5011916;28;20287;-88
2022/06/22 07:08:19;;;;;;;1.83;1.70;;;28.80;4.20;;;;;;4994558;28;20230;-88
2022/06/22 07:10:57;;;;;;;2.92;2.38;;;30.00;9.00;;;;;;4996519;28;20637;-87
2022/06/22 07:13:38;;;;;;;3.40;2.00;;;29.90;1.00;;;;;;4993861;28;20246;-87
2022/06/22 07:16:10;;;;;;;4.05;2.15;;;30.30;1.00;;;;;;5013279;28;20299;-88
2022/06/22 07:19:11;;;;;;;2.83;1.80;;;31.00;1.00;;;;;;4993386;28;20211;-87
2022/06/22 07:21:52;;;;;;;2.05;1.77;;;31.70;1.00;;;;;;4990898;28;20242;-89
2022/06/22 07:24:40;;;;;;;2.45;1.77;;;31.90;1.00;;;;;;4999482;28;20191;-89
2022/06/22 07:27:42;;;;;;;2.30;1.90;;;31.50;1.00;;;;;;5011457;28;20694;-88
2022/06/22 07:30:20;;;;;;;2.85;2.00;;;31.70;1.00;;;;;;5017567;28;20218;-87
2022/06/22 07:32:51;;;;;;;2.35;1.70;;;30.90;1.00;;;;;;5002846;28;20576;-87
2022/06/22 07:35:36;;;;;;;4.72;1.80;;;29.70;1.00;;;;;;5006509;28;20207;-87
2022/06/22 07:38:25;;;;;;;2.58;1.90;;;28.30;1.00;;;;;;5003702;28;20183;-88
2022/06/22 07:43:36;;;;;;;3.80;1.80;;;;;;;;;;5002196;28;20296;-86
2022/06/22 07:46:02;;;;;;;2.13;1.63;;;;;;;;;;4997650;28;20209;-87
2022/06/22 07:48:31;;;;;;;2.38;1.80;;;27.20;1.00;;;;;;4998389;28;20239;-87
2022/06/22 07:51:00;;;;;;;2.83;2.13;;;23.80;99.90;;;;;;5014047;28;20669;-87
2022/06/22 07:53:36;;;;;;;4.20;1.83;;;23.20;1.00;;;;;;5003233;28;20287;-86
2022/06/22 07:56:21;;;;;;;2.80;1.70;;;22.80;1.00;;;;;;5003234;28;20191;-87
2022/06/22 07:58:57;;;;;;;2.80;1.80;;;22.70;1.00;;;;;;4983122;28;20196;-87
2022/06/22 08:01:30;;;;;;;3.25;1.90;;;22.20;99.90;;;;;;4997857;28;20180;-87
2022/06/22 08:04:04;;;;;;;3.03;1.55;;;22.10;99.90;;;;;;5002623;28;20648;-87
2022/06/22 08:06:36;;;;;;;2.05;1.40;;;22.20;1.00;;;;;;4998148;28;20199;-85
2022/06/22 08:09:21;;;;;;;3.45;1.60;;;22.20;1.00;;;;;;4998645;28;20208;-87
2022/06/22 08:11:59;;;;;;;2.75;1.60;;;22.10;99.90;;;;;;5000082;28;20188;-86
2022/06/22 08:14:38;;;;;;;3.85;1.80;;;22.30;1.00;;;;;;4997048;28;20203;-87
2022/06/22 08:17:09;;;;;;;4.35;1.58;;;22.00;29.30;;;;;;4997839;28;20237;-87
2022/06/22 08:19:35;;;;;;;2.03;1.60;;;21.90;99.90;;;;;;4998397;28;20200;-86
2022/06/22 08:22:04;;;;;;;2.50;1.65;;;21.90;99.90;;;;;;4997826;28;20190;-87
2022/06/22 08:24:32;;;;;;;2.25;1.30;;;21.70;99.90;;;;;;5015127;28;20181;-87
2022/06/22 08:26:59;;;;;;;2.75;1.58;;;21.90;99.90;;;;;;5014043;28;20675;-87
2022/06/22 08:29:26;;;;;;;3.47;1.50;;;22.10;99.90;;;;;;5001588;28;20673;-87
2022/06/22 08:32:03;;;;;;;2.70;1.40;;;22.30;1.00;;;;;;5002342;28;20198;-86
2022/06/22 08:34:34;;;;;;;1.80;1.50;;;22.30;1.00;;;;;;4997961;28;20199;-87
2022/06/22 08:37:07;;;;;;;1.58;1.20;;;22.30;1.00;;;;;;4998940;28;20600;-87
2022/06/22 08:39:39;;;;;;;2.83;1.45;;;22.40;1.00;;;;;;5004333;28;20192;-87
2022/06/22 08:42:15;;;;;;;2.50;1.73;;;22.40;1.00;;;;;;5012625;28;20183;-87
2022/06/22 08:45:28;;;;;;;1.95;1.50;;;22.20;1.00;;;;;;5000038;28;20258;-86
2022/06/22 08:48:05;;;;;;;4.07;1.40;;;22.40;1.00;;;;;;4989054;28;20195;-87
2022/06/22 08:50:53;;;;;;;2.63;1.50;;;22.60;1.00;;;;;;4998089;28;20666;-86
2022/06/22 08:53:43;;;;;;;2.70;1.40;;;22.50;1.00;;;;;;5001360;28;20310;-86
2022/06/22 08:56:30;;;;;;;1.88;1.20;;;22.40;99.90;;;;;;5011098;28;20198;-87
2022/06/22 08:59:12;;;;;;;2.72;1.10;;;22.30;99.90;;;;;;4992089;28;20208;-87
2022/06/22 09:01:56;;;;;;;2.60;1.33;;;22.10;99.90;;;;;;5008474;28;20234;-86
2022/06/22 09:04:44;;;;;;;1.35;1.10;;;22.20;99.90;;;;;;4979418;28;20220;-87
2022/06/22 09:07:34;;;;;;;2.20;1.10;;;22.40;99.90;;;;;;4992239;28;20187;-86
2022/06/22 09:10:14;;;;;;;3.83;1.25;;;22.40;99.90;;;;;;4991737;28;20215;-86
2022/06/22 09:13:05;;;;;;;4.00;1.20;;;22.40;99.90;;;;;;4999476;28;20241;-86
2022/06/22 09:16:08;;;;;;;2.38;1.05;;;22.30;99.90;;;;;;4999587;28;20215;-87
2022/06/22 09:19:00;;;;;;;2.55;1.60;;;22.40;99.90;;;;;;4992854;28;20215;-86
2022/06/22 09:21:38;;;;;;;3.80;1.40;;;22.30;99.90;;;;;;4982484;28;20246;-85
2022/06/22 09:24:42;;;;;;;3.15;1.20;;;22.40;99.90;;;;;;4995922;28;20179;-86
2022/06/22 09:27:18;;;;;;;2.92;1.60;;;22.50;99.90;;;;;;4976940;28;20681;-86
2022/06/22 09:30:12;;;;;;;1.85;1.30;;;22.30;99.90;;;;;;4992166;28;20196;-88
2022/06/22 09:33:04;;;;;;;1.92;1.25;;;22.30;99.90;;;;;;4989137;28;20189;-88
2022/06/22 09:36:06;;;;;;;2.75;1.63;;;22.40;99.90;;;;;;4972825;28;20193;-89
2022/06/22 09:39:01;;;;;;;3.50;1.60;;;22.40;99.90;;;;;;4972962;28;20199;-89
2022/06/22 09:41:40;;;;;;;4.10;1.50;;;22.30;99.90;;;;;;4971739;28;20701;-87
2022/06/22 09:44:51;;;;;;;2.00;1.35;;;22.30;99.90;;;;;;4972651;28;20184;-88
2022/06/22 09:47:31;;;;;;;4.35;1.65;;;22.50;99.90;;;;;;4968614;28;20658;-88
2022/06/22 09:50:18;;;;;;;2.42;1.20;;;22.60;99.90;;;;;;4991648;28;20200;-88
2022/06/22 09:52:47;;;;;;;2.63;1.45;;;22.80;99.90;;;;;;4991790;28;20184;-87
2022/06/22 09:58:47;;;;;;;3.28;1.35;;;22.50;99.90;;;;;;4993048;28;20261;-88
2022/06/22 10:01:24;;;;;;;2.15;1.30;;;22.50;99.90;;;;;;4993223;28;20224;-87
2022/06/22 10:04:12;;;;;;;3.75;1.65;;;22.50;99.90;;;;;;4997845;28;20183;-87
2022/06/22 10:07:04;;;;;;;2.53;1.30;;;22.50;99.90;;;;;;4994842;28;20198;-87
2022/06/22 10:09:38;;;;;;;3.28;1.50;;;22.50;99.90;;;;;;4991376;28;20224;-87
2022/06/22 10:12:25;;;;;;;1.67;1.15;;;22.60;99.90;;;;;;4992389;28;20215;-87
2022/06/22 10:15:11;;;;;;;3.25;1.42;;;22.80;99.90;;;;;;4991411;28;20204;-87
2022/06/22 10:18:00;;;;;;;2.10;1.55;;;23.00;99.90;;;;;;4988776;28;20180;-88
2022/06/22 10:20:31;;;;;;;1.95;1.40;;;23.20;99.90;;;;;;4995972;28;20184;-87
2022/06/22 10:23:11;;;;;;;1.48;1.23;;;23.00;99.90;;;;;;4995274;28;20183;-88
2022/06/22 10:25:52;;;;;;;1.77;0.95;;;;;;;;;;4992221;28;20171;-88
2022/06/22 10:28:56;;;;;;;1.95;1.15;;;23.10;99.90;;;;;;4988998;28;20623;-88
2022/06/22 10:31:40;;;;;;;2.17;1.30;;;23.50;99.90;;;;;;4990132;28;20180;-87
2022/06/22 10:34:27;;;;;;;1.77;1.55;;;23.50;99.90;;;;;;4993109;28;20211;-88
2022/06/22 10:37:06;;;;;;;3.75;1.60;;;23.80;99.90;;;;;;4991809;28;20270;-87
2022/06/22 10:39:47;;;;;;;2.53;1.40;;;23.70;95.20;;;;;;4990655;28;20207;-87
2022/06/22 10:45:47;;;;;;;2.40;1.77;;;23.80;99.90;;;;;;4996077;28;20187;-91
2022/06/22 10:48:41;;;;;;;1.80;1.35;;;23.90;98.50;;;;;;4991103;28;20631;-88
2022/06/22 10:51:25;;;;;;;2.65;1.40;;;24.00;92.40;;;;;;4992294;28;20649;-88
2022/06/22 10:54:16;;;;;;;2.85;1.50;;;24.20;89.20;;;;;;5006445;28;20755;-89
2022/06/22 10:56:53;;;;;;;4.60;1.30;;;24.30;73.20;;;;;;4990319;28;20188;-88
2022/06/22 10:59:40;;;;;;;2.88;1.63;;;24.30;72.90;;;;;;4994583;28;20610;-88
2022/06/22 11:02:39;;;;;;;3.20;1.30;;;24.20;77.50;;;;;;4987477;28;20238;-88
2022/06/22 11:05:15;;;;;;;2.30;1.55;;;24.30;68.30;;;;;;4987725;28;20595;-89
2022/06/22 11:08:11;;;;;;;2.08;1.27;;;24.30;59.70;;;;;;5000380;28;20202;-89
2022/06/22 11:10:59;;;;;;;2.97;1.40;;;24.30;64.60;;;;;;4996146;28;20188;-88
2022/06/22 11:13:54;;;;;;;1.98;1.20;;;24.20;58.60;;;;;;4986549;28;20702;-88
2022/06/22 11:16:27;;;;;;;1.73;1.30;;;24.00;53.80;;;;;;4991532;28;20553;-90
2022/06/22 11:19:30;;;;;;;1.75;1.17;;;24.00;51.10;;;;;;4993421;28;20204;-89
2022/06/22 11:22:10;;;;;;;4.65;1.30;;;23.90;60.60;;;;;;4990584;28;20554;-89
2022/06/22 11:25:15;;;;;;;3.05;1.50;;;24.00;69.50;;;;;;4997281;28;20395;-89
2022/06/22 11:31:20;;;;;;;1.92;1.50;;;24.40;34.50;;;;;;4995044;28;20389;-89
2022/06/22 11:34:10;;;;;;;2.53;1.20;;;24.50;17.00;;;;;;4959847;28;20605;-89
2022/06/22 11:37:08;;;;;;;2.10;1.30;;;24.40;19.30;;;;;;5007190;28;20177;-90
2022/06/22 11:39:33;;;;;;;2.55;1.50;;;24.30;23.90;;;;;;4992589;28;20200;-89
2022/06/22 11:42:31;;;;;;;2.25;1.40;;;24.30;29.20;;;;;;4992104;28;20755;-89
2022/06/22 11:48:36;;;;;;;2.03;1.58;;;24.30;23.80;;;;;;5001255;28;20203;-88
2022/06/22 11:51:08;;;;;;;1.73;1.40;;;24.20;15.30;;;;;;4990077;28;20494;-87
2022/06/22 11:54:05;;;;;;;2.35;1.40;;;24.00;13.80;;;;;;4985581;28;20215;-87
2022/06/22 11:56:37;;;;;;;3.35;1.42;;;23.90;18.30;;;;;;4993239;28;20180;-88
2022/06/22 11:59:36;;;;;;;7.10;1.30;;;23.90;19.50;;;;;;4987130;28;20196;-88
2022/06/22 12:02:39;;;;;;;1.55;1.08;;;23.90;14.80;;;;;;5001159;28;20194;-86
2022/06/22 12:05:19;;;;;;;3.22;1.48;;;24.10;11.00;;;;;;4989537;28;20282;-86
2022/06/22 12:08:03;;;;;;;1.70;1.25;;;23.90;12.50;;;;;;4987880;28;20183;-86
2022/06/22 12:10:49;;;;;;;2.75;1.10;;;24.00;17.00;;;;;;4990120;28;20293;-87
2022/06/22 12:13:34;;;;;;;2.67;1.30;;;24.00;7.50;;;;;;4991928;28;20185;-86
2022/06/22 12:16:02;;;;;;;1.40;1.00;;;24.10;12.70;;;;;;5008882;28;20189;-89
2022/06/22 12:19:07;;;;;;;2.08;1.27;;;24.20;8.10;;;;;;4989977;28;20200;-89
2022/06/22 12:21:58;;;;;;;1.33;1.23;;;24.40;12.20;;;;;;5001749;28;20238;-88
2022/06/22 12:24:38;;;;;;;1.52;1.02;;;24.40;10.80;;;;;;4989485;28;20255;-89
2022/06/22 12:27:21;;;;;;;1.40;0.93;;;24.50;1.00;;;;;;4996390;28;20670;-88
2022/06/22 12:30:29;;;;;;;1.58;1.17;;;24.70;1.00;;;;;;4993577;28;20211;-88
2022/06/22 12:33:08;;;;;;;1.42;1.10;;;24.70;1.00;;;;;;4996564;28;20191;-88
2022/06/22 12:35:58;;;;;;;1.52;1.13;;;24.60;1.00;;;;;;4989421;28;20192;-88
2022/06/22 12:39:17;;;;;;;2.50;1.20;;;24.50;1.00;;;;;;4991607;28;20200;-87
2022/06/22 12:42:01;;;;;;;1.55;1.00;;;24.70;1.00;;;;;;4973267;28;20192;-89
2022/06/22 12:45:08;;;;;;;1.30;1.20;;;24.80;1.00;;;;;;4996722;28;20216;-88
2022/06/22 12:47:44;;;;;;;1.00;0.95;;;24.90;1.00;;;;;;4999154;28;20654;-89
2022/06/22 12:50:31;;;;;;;1.48;1.20;;;24.90;1.00;;;;;;4991719;28;20254;-88
2022/06/22 12:53:12;;;;;;;1.85;1.25;;;25.00;1.00;;;;;;4993588;28;20183;-88
2022/06/22 12:55:43;;;;;;;1.75;1.20;;;24.90;1.00;;;;;;5007346;28;20206;-88
2022/06/22 12:58:22;;;;;;;1.17;1.08;;;25.00;1.00;;;;;;5011660;28;20704;-88
2022/06/22 13:00:48;;;;;;;2.22;1.23;;;25.20;1.00;;;;;;4993326;28;20279;-88
2022/06/22 13:03:23;;;;;;;1.45;1.13;;;25.30;1.00;;;;;;4991166;28;20560;-88
2022/06/22 13:05:51;;;;;;;2.05;1.10;;;25.20;1.00;;;;;;4985513;28;20184;-88
2022/06/22 13:08:24;;;;;;;2.17;1.10;;;25.10;1.00;;;;;;4992129;28;20291;-87
2022/06/22 13:10:55;;;;;;;2.05;1.17;;;25.10;1.00;;;;;;5008806;28;20559;-88
2022/06/22 13:13:59;;;;;;;1.30;1.08;;;24.90;1.00;;;;;;4990209;28;20208;-88
2022/06/22 13:16:39;;;;;;;1.30;0.95;;;25.10;1.00;;;;;;4984968;28;20184;-88
2022/06/22 13:19:28;;;;;;;1.75;1.48;;;25.10;1.00;;;;;;4989562;28;20251;-88
2022/06/22 13:22:11;;;;;;;2.50;1.02;;;25.10;1.00;;;;;;4992314;28;20635;-87
2022/06/22 13:24:45;;;;;;;3.15;1.10;;;25.10;1.00;;;;;;4993620;28;20227;-88
2022/06/22 13:27:48;;;;;;;1.85;0.90;;;25.20;1.00;;;;;;4987846;28;20197;-86
2022/06/22 13:30:19;;;;;;;1.38;1.20;;;25.20;1.00;;;;;;4990051;28;20311;-87
2022/06/22 13:33:07;;;;;;;2.50;1.30;;;25.10;1.00;;;;;;4986507;28;20249;-87
2022/06/22 13:35:42;;;;;;;3.88;1.20;;;25.10;1.00;;;;;;4977240;28;20184;-87
2022/06/22 13:38:10;;;;;;;1.83;1.10;;;25.20;1.00;;;;;;4986040;28;20187;-86
2022/06/22 13:40:49;;;;;;;2.40;1.00;;;25.40;1.00;;;;;;4990822;28;20188;-86
2022/06/22 13:43:21;;;;;;;1.73;0.95;;;25.50;1.00;;;;;;4995140;28;20184;-86
2022/06/22 13:46:13;;;;;;;1.42;0.90;;;25.40;1.00;;;;;;4986569;28;20180;-87
2022/06/22 13:48:44;;;;;;;1.50;1.00;;;25.40;1.00;;;;;;4992898;28;20204;-87
2022/06/22 13:51:29;;;;;;;2.42;1.10;;;25.40;1.00;;;;;;4992761;28;21125;-87
2022/06/22 13:54:14;;;;;;;0.95;0.90;;;25.40;1.00;;;;;;4986254;28;20215;-88
2022/06/22 13:56:56;;;;;;;1.75;0.95;;;25.30;1.00;;;;;;4994533;28;20222;-88
2022/06/22 13:59:46;;;;;;;1.30;1.00;;;25.50;1.00;;;;;;5007067;28;20233;-86
2022/06/22 14:02:33;;;;;;;1.08;0.80;;;25.50;1.00;;;;;;4989457;28;20180;-83
2022/06/22 14:05:15;;;;;;;2.30;1.13;;;25.50;1.00;;;;;;4987343;28;20194;-84
2022/06/22 14:07:53;;;;;;;2.60;1.20;;;25.40;1.00;;;;;;5001123;28;20283;-85
2022/06/22 14:10:45;;;;;;;1.08;1.00;;;25.30;1.00;;;;;;4996782;28;20187;-86
2022/06/22 14:13:36;;;;;;;2.33;1.25;;;25.30;1.00;;;;;;4992606;28;20196;-86
2022/06/22 14:16:07;;;;;;;1.45;1.10;;;25.50;1.00;;;;;;4990569;28;20235;-85
2022/06/22 14:18:48;;;;;;;1.92;1.00;;;25.50;1.00;;;;;;4986776;28;20292;-85
2022/06/22 14:21:46;;;;;;;1.50;1.00;;;25.30;1.00;;;;;;4992517;28;20198;-85